Halesowen, United Kingdom
Current Conditions -  °F | °C
As of 8:50 AM on Sunday 23 Nov 2014 (Local Time) from EGBB Reporting Station
Light Rain Light Rain  
Wind Chill: 45°   Ceiling: 4000
Heat Index: 45°   Visibility: 6mi
Dew Point: 45°   Wind: 2mph
Humidity: 100%   Direction: 340°NNW
Pressure: 30.03"   Gusts: NA
Location:  52.45°N, 2.05°W
Report Text: EGBB 230850Z 34002KT 9999 -RA SCT030 BKN040 07/07 Q1017
Loading
Personal Weather Stations






























Interactive Weather Map New forecast layout! Learn more

10-Day Weather Forecast

Advertisements
Track Severe Weather on mobile